createdAt,value
2018-08-19T00:01:46.160Z,37.80
2018-08-19T00:04:55.211Z,37.80
2018-08-19T00:08:06.180Z,37.90
2018-08-19T00:11:20.003Z,37.80
2018-08-19T00:14:36.532Z,38.20
2018-08-19T00:17:47.192Z,37.90
2018-08-19T00:20:57.812Z,37.90
2018-08-19T00:24:07.280Z,37.90
2018-08-19T00:27:16.342Z,38.00
2018-08-19T00:30:26.262Z,38.00
2018-08-19T00:33:35.069Z,37.90
2018-08-19T00:36:50.023Z,37.90
2018-08-19T00:39:59.122Z,38.00
2018-08-19T00:43:11.093Z,38.00
2018-08-19T00:46:23.582Z,38.00
2018-08-19T00:49:32.064Z,37.90
2018-08-19T00:52:42.330Z,37.90
2018-08-19T00:55:56.269Z,37.90
2018-08-19T00:59:05.238Z,38.00
2018-08-19T01:02:15.340Z,38.00
2018-08-19T01:05:25.220Z,38.00
2018-08-19T01:08:34.980Z,38.10
2018-08-19T01:11:49.810Z,38.10
2018-08-19T01:14:59.692Z,38.10
2018-08-19T01:18:10.204Z,38.10
2018-08-19T01:21:28.390Z,38.50
2018-08-19T01:24:37.672Z,38.00
2018-08-19T01:27:47.615Z,38.10
2018-08-19T01:30:57.486Z,38.10
2018-08-19T01:34:05.677Z,38.00
2018-08-19T01:37:13.454Z,38.20
2018-08-19T01:40:23.600Z,38.10
2018-08-19T01:43:32.434Z,38.10
2018-08-19T01:46:41.707Z,38.00
2018-08-19T01:49:50.028Z,38.00
2018-08-19T01:52:59.852Z,38.00
2018-08-19T01:56:08.232Z,38.00
2018-08-19T01:59:17.243Z,38.10
2018-08-19T02:02:27.804Z,38.10
2018-08-19T02:05:36.856Z,38.10
2018-08-19T02:08:44.672Z,38.10
2018-08-19T02:11:57.596Z,38.00
2018-08-19T02:15:06.860Z,38.00
2018-08-19T02:18:16.305Z,38.10
2018-08-19T02:21:24.662Z,38.00
2018-08-19T02:24:33.880Z,38.00
2018-08-19T02:27:42.308Z,38.00
2018-08-19T02:30:54.951Z,38.00
2018-08-19T02:34:05.180Z,38.00
2018-08-19T02:37:20.346Z,38.10
2018-08-19T02:40:33.628Z,38.10
2018-08-19T02:43:41.970Z,38.00
2018-08-19T02:46:51.263Z,38.00
2018-08-19T02:50:01.446Z,38.00
2018-08-19T02:53:10.222Z,38.00
2018-08-19T02:56:19.858Z,38.00
2018-08-19T02:59:30.167Z,38.00
2018-08-19T03:02:46.530Z,38.10
2018-08-19T03:05:58.816Z,38.00
2018-08-19T03:09:09.748Z,38.10
2018-08-19T03:12:25.806Z,38.10
2018-08-19T03:15:34.118Z,38.00
2018-08-19T03:18:44.302Z,38.00
2018-08-19T03:21:52.580Z,38.00
2018-08-19T03:25:01.692Z,38.00
2018-08-19T03:28:11.615Z,38.10
2018-08-19T03:31:20.114Z,38.10
2018-08-19T03:34:29.796Z,38.20
2018-08-19T03:37:41.895Z,38.00
2018-08-19T03:40:53.746Z,38.10
2018-08-19T03:44:06.771Z,38.60
2018-08-19T03:47:18.508Z,37.90
2018-08-19T03:50:31.133Z,38.00
2018-08-19T03:53:40.292Z,38.00
2018-08-19T03:56:49.670Z,38.00
2018-08-19T03:59:59.340Z,38.10
2018-08-19T04:03:07.406Z,38.10
2018-08-19T04:06:19.328Z,38.10
2018-08-19T04:09:27.230Z,38.00
2018-08-19T04:12:47.358Z,37.70
2018-08-19T04:15:55.722Z,38.00
2018-08-19T04:19:13.280Z,38.00
2018-08-19T04:22:26.524Z,38.00
2018-08-19T04:25:44.442Z,38.00
2018-08-19T04:28:54.755Z,38.00
2018-08-19T04:32:03.682Z,38.00
2018-08-19T04:35:12.607Z,38.00
2018-08-19T04:38:21.494Z,38.00
2018-08-19T04:41:32.428Z,38.00
2018-08-19T04:44:41.372Z,37.90
2018-08-19T04:47:52.605Z,38.00
2018-08-19T04:51:01.456Z,37.90
2018-08-19T04:54:10.265Z,38.00
2018-08-19T04:57:19.108Z,38.00
2018-08-19T05:00:27.683Z,38.10
2018-08-19T05:03:35.506Z,38.10
2018-08-19T05:06:44.534Z,38.00
2018-08-19T05:09:53.792Z,37.90
2018-08-19T05:13:02.845Z,37.90
2018-08-19T05:16:12.519Z,37.90
2018-08-19T05:19:21.895Z,38.30
2018-08-19T05:22:32.054Z,38.40
2018-08-19T05:25:40.955Z,37.90
2018-08-19T05:28:48.837Z,37.90
2018-08-19T05:32:03.635Z,38.30
2018-08-19T05:35:12.382Z,38.00
2018-08-19T05:38:21.552Z,37.90
2018-08-19T05:41:31.306Z,38.30
2018-08-19T05:44:44.956Z,38.40
2018-08-19T05:47:53.279Z,38.30
2018-08-19T05:51:02.330Z,38.40
2018-08-19T05:54:11.783Z,38.20
2018-08-19T05:57:20.436Z,38.00
2018-08-19T06:00:31.891Z,38.00
2018-08-19T06:03:40.251Z,38.00
2018-08-19T06:06:49.476Z,38.00
2018-08-19T06:09:58.213Z,38.40
2018-08-19T06:13:07.789Z,38.30
2018-08-19T06:16:16.726Z,38.30
2018-08-19T06:19:25.265Z,37.90
2018-08-19T06:22:41.212Z,38.40
2018-08-19T06:25:50.786Z,38.10
2018-08-19T06:28:58.896Z,38.00
2018-08-19T06:32:07.421Z,38.10
2018-08-19T06:35:17.222Z,38.00
2018-08-19T06:38:26.889Z,38.30
2018-08-19T06:41:35.653Z,38.30
2018-08-19T06:44:44.643Z,38.50
2018-08-19T06:47:54.145Z,38.50
2018-08-19T06:51:03.963Z,38.40
2018-08-19T06:54:14.133Z,38.10
2018-08-19T06:57:25.797Z,38.10
2018-08-19T07:00:37.562Z,38.00
2018-08-19T07:03:47.592Z,37.80
2018-08-19T07:06:57.977Z,38.40
2018-08-19T07:10:08.476Z,38.40
2018-08-19T07:13:18.853Z,37.90
2018-08-19T07:16:28.133Z,38.00
2018-08-19T07:19:36.893Z,38.00
2018-08-19T07:22:45.305Z,38.10
2018-08-19T07:25:55.207Z,38.10
2018-08-19T07:29:04.675Z,38.10
2018-08-19T07:32:13.100Z,38.10
2018-08-19T07:35:22.679Z,38.00
2018-08-19T07:38:32.483Z,38.00
2018-08-19T07:41:42.425Z,38.40
2018-08-19T07:44:51.606Z,38.50
2018-08-19T07:48:00.032Z,38.00
2018-08-19T07:51:08.247Z,38.10
2018-08-19T07:54:17.719Z,38.10
2018-08-19T07:57:33.706Z,38.00
2018-08-19T08:00:46.484Z,38.10
2018-08-19T08:03:56.227Z,38.20
2018-08-19T08:07:05.311Z,38.20
2018-08-19T08:10:14.149Z,38.10
2018-08-19T08:13:23.727Z,38.10
2018-08-19T08:16:33.203Z,38.20
2018-08-19T08:19:43.603Z,38.10
2018-08-19T08:22:54.374Z,38.50
2018-08-19T08:26:05.372Z,38.10
2018-08-19T08:29:14.477Z,38.20
2018-08-19T08:32:23.374Z,38.20
2018-08-19T08:35:47.881Z,38.20
2018-08-19T08:38:56.204Z,38.20
2018-08-19T08:42:05.563Z,38.30
2018-08-19T08:45:14.532Z,38.20
2018-08-19T08:48:23.249Z,38.20
2018-08-19T08:51:31.583Z,38.60
2018-08-19T08:54:41.879Z,38.20
2018-08-19T08:57:50.621Z,38.20
2018-08-19T09:00:58.427Z,38.60
2018-08-19T09:04:07.367Z,38.10
2018-08-19T09:07:16.899Z,38.20
2018-08-19T09:10:26.783Z,38.20
2018-08-19T09:13:35.104Z,38.60
2018-08-19T09:16:40.609Z,38.60
2018-08-19T09:19:51.161Z,38.70
2018-08-19T09:23:00.059Z,38.50
2018-08-19T09:26:09.061Z,38.60
2018-08-19T09:29:19.155Z,38.70
2018-08-19T09:32:29.880Z,38.20
2018-08-19T09:35:40.449Z,38.30
2018-08-19T09:38:49.237Z,38.30
2018-08-19T09:41:59.336Z,38.30
2018-08-19T09:45:08.591Z,38.60
2018-08-19T09:48:17.231Z,38.60
2018-08-19T09:51:25.694Z,38.30
2018-08-19T09:54:39.305Z,38.60
2018-08-19T09:57:53.271Z,38.30
2018-08-19T10:02:06.650Z,38.70
2018-08-19T10:05:19.991Z,38.40
2018-08-19T10:08:30.304Z,38.40
2018-08-19T10:11:39.496Z,38.30
2018-08-19T10:14:47.981Z,38.70
2018-08-19T10:17:56.717Z,38.80
2018-08-19T10:21:06.506Z,38.70
2018-08-19T10:24:16.391Z,38.70
2018-08-19T10:27:27.114Z,38.30
2018-08-19T10:30:36.169Z,38.40
2018-08-19T10:33:48.985Z,38.40
2018-08-19T10:36:56.832Z,38.50
2018-08-19T10:40:06.041Z,38.40
2018-08-19T10:43:23.462Z,38.80
2018-08-19T10:46:32.711Z,38.80
2018-08-19T10:49:40.962Z,38.80
2018-08-19T10:52:51.953Z,38.90
2018-08-19T10:55:59.883Z,38.90
2018-08-19T10:59:10.051Z,38.90
2018-08-19T11:02:19.851Z,38.40
2018-08-19T11:05:29.635Z,39.00
2018-08-19T11:08:39.205Z,38.90
2018-08-19T11:11:48.929Z,38.80
2018-08-19T11:14:58.907Z,38.80
2018-08-19T11:18:08.662Z,38.80
2018-08-19T11:21:24.165Z,38.80
2018-08-19T11:24:37.629Z,38.80
2018-08-19T11:27:47.615Z,38.80
2018-08-19T11:30:56.742Z,38.90
2018-08-19T11:34:09.591Z,39.00
2018-08-19T11:37:19.293Z,38.90
2018-08-19T11:40:29.886Z,38.90
2018-08-19T11:43:39.771Z,38.70
2018-08-19T11:46:48.416Z,38.80
2018-08-19T11:49:57.368Z,38.80
2018-08-19T11:53:07.248Z,38.80
2018-08-19T11:56:14.835Z,38.80
2018-08-19T11:59:23.050Z,38.90
2018-08-19T12:02:34.822Z,38.90
2018-08-19T12:05:43.348Z,38.90
2018-08-19T12:08:53.035Z,38.90
2018-08-19T12:12:02.186Z,38.80
2018-08-19T12:15:11.244Z,38.80
2018-08-19T12:18:19.244Z,38.80
2018-08-19T12:21:27.462Z,38.90
2018-08-19T12:24:42.383Z,38.90
2018-08-19T12:27:52.789Z,38.80
2018-08-19T12:31:02.660Z,38.80
2018-08-19T12:34:11.608Z,38.90
2018-08-19T12:37:20.980Z,38.80
2018-08-19T12:40:35.882Z,39.10
2018-08-19T12:43:44.822Z,38.80
2018-08-19T12:46:54.114Z,38.80
2018-08-19T12:50:05.073Z,38.80
2018-08-19T12:53:14.486Z,38.70
2018-08-19T12:56:23.434Z,38.80
2018-08-19T12:59:33.425Z,38.80
2018-08-19T13:02:45.610Z,38.80
2018-08-19T13:06:02.286Z,38.70
2018-08-19T13:09:11.128Z,38.80
2018-08-19T13:12:21.762Z,38.70
2018-08-19T13:15:31.851Z,38.70
2018-08-19T13:18:48.839Z,38.80
2018-08-19T13:21:58.542Z,38.80
2018-08-19T13:25:07.986Z,38.70
2018-08-19T13:28:17.468Z,38.60
2018-08-19T13:31:30.477Z,38.70
2018-08-19T13:34:39.112Z,38.70
2018-08-19T13:37:47.378Z,38.70
2018-08-19T13:40:59.518Z,38.70
2018-08-19T13:44:08.360Z,38.80
2018-08-19T13:47:18.667Z,38.80
2018-08-19T13:50:27.939Z,38.70
2018-08-19T13:53:37.052Z,38.70
2018-08-19T13:56:46.346Z,38.70
2018-08-19T13:59:56.020Z,38.70
2018-08-19T14:03:06.850Z,38.70
2018-08-19T14:06:16.634Z,38.60
2018-08-19T14:09:28.490Z,38.80
2018-08-19T14:12:40.480Z,38.70
2018-08-19T14:15:50.801Z,38.80
2018-08-19T14:19:01.386Z,38.70
2018-08-19T14:22:10.872Z,38.70
2018-08-19T14:25:19.417Z,38.70
2018-08-19T14:28:28.884Z,38.70
2018-08-19T14:31:38.347Z,38.60
2018-08-19T14:34:46.771Z,38.60
2018-08-19T14:37:57.692Z,38.60
2018-08-19T14:41:08.277Z,38.60
2018-08-19T14:44:21.654Z,38.70
2018-08-19T14:47:30.710Z,38.70
2018-08-19T14:50:41.643Z,38.80
2018-08-19T14:53:50.701Z,38.70
2018-08-19T14:56:59.935Z,38.70
2018-08-19T15:00:09.246Z,39.20
2018-08-19T15:03:18.166Z,38.70
2018-08-19T15:06:31.918Z,38.60
2018-08-19T15:09:45.444Z,38.70
2018-08-19T15:12:55.349Z,38.70
2018-08-19T15:16:04.400Z,38.70
2018-08-19T15:19:12.972Z,38.80
2018-08-19T15:22:23.228Z,38.70
2018-08-19T15:25:34.371Z,38.70
2018-08-19T15:28:43.385Z,38.60
2018-08-19T15:31:53.568Z,38.60
2018-08-19T15:35:05.084Z,38.60
2018-08-19T15:38:14.970Z,38.90
2018-08-19T15:41:25.311Z,38.60
2018-08-19T15:44:34.333Z,38.70
2018-08-19T15:47:46.722Z,38.80
2018-08-19T15:50:58.700Z,38.70
2018-08-19T15:54:07.854Z,38.60
2018-08-19T15:57:20.400Z,38.70
2018-08-19T16:00:31.185Z,38.70
2018-08-19T16:03:40.341Z,38.70
2018-08-19T16:06:48.356Z,38.60
2018-08-19T16:09:59.281Z,38.70
2018-08-19T16:13:08.329Z,38.70
2018-08-19T16:16:24.494Z,38.70
2018-08-19T16:19:34.001Z,38.80
2018-08-19T16:22:41.942Z,38.70
2018-08-19T16:25:54.778Z,38.70
2018-08-19T16:29:03.806Z,38.70
2018-08-19T16:32:13.926Z,38.80
2018-08-19T16:35:25.102Z,38.70
2018-08-19T16:38:34.520Z,38.70
2018-08-19T16:41:43.394Z,38.70
2018-08-19T16:44:52.497Z,38.70
2018-08-19T16:48:00.655Z,38.80
2018-08-19T16:51:09.842Z,38.70
2018-08-19T16:54:19.171Z,38.80
2018-08-19T16:57:29.319Z,38.70
2018-08-19T17:00:38.097Z,38.80
2018-08-19T17:03:53.224Z,38.80
2018-08-19T17:07:06.516Z,38.80
2018-08-19T17:10:16.514Z,38.80
2018-08-19T17:13:26.257Z,38.90
2018-08-19T17:16:37.366Z,38.90
2018-08-19T17:19:45.965Z,38.80
2018-08-19T17:22:56.960Z,38.80
2018-08-19T17:26:05.390Z,38.80
2018-08-19T17:29:21.464Z,38.70
2018-08-19T17:32:31.266Z,38.80
2018-08-19T17:35:42.361Z,38.90
2018-08-19T17:38:53.160Z,38.80
2018-08-19T17:42:02.949Z,38.80
2018-08-19T17:45:11.684Z,38.90
2018-08-19T17:48:21.680Z,39.50
2018-08-19T17:51:40.330Z,38.90
2018-08-19T17:54:50.018Z,38.90
2018-08-19T17:57:59.072Z,38.90
2018-08-19T18:01:09.792Z,38.90
2018-08-19T18:04:20.110Z,38.90
2018-08-19T18:07:34.058Z,38.90
2018-08-19T18:10:43.240Z,38.50
2018-08-19T18:13:55.195Z,38.90
2018-08-19T18:17:05.296Z,38.90
2018-08-19T18:20:14.233Z,38.90
2018-08-19T18:23:31.120Z,38.90
2018-08-19T18:26:42.218Z,39.00
2018-08-19T18:29:55.926Z,38.90
2018-08-19T18:33:04.130Z,38.90
2018-08-19T18:36:13.896Z,38.90
2018-08-19T18:39:25.676Z,38.90
2018-08-19T18:42:43.613Z,39.60
2018-08-19T18:45:56.185Z,39.00
2018-08-19T18:49:11.735Z,39.00
2018-08-19T18:52:27.650Z,39.00
2018-08-19T18:55:36.120Z,39.10
2018-08-19T18:58:45.134Z,38.90
2018-08-19T19:01:54.968Z,39.00
2018-08-19T19:05:11.009Z,38.90
2018-08-19T19:08:26.632Z,38.90
2018-08-19T19:11:39.790Z,39.00
2018-08-19T19:14:49.389Z,39.00
2018-08-19T19:17:58.799Z,39.10
2018-08-19T19:21:13.533Z,39.10
2018-08-19T19:24:22.639Z,39.10
2018-08-19T19:27:34.382Z,39.00
2018-08-19T19:30:45.000Z,39.00
2018-08-19T19:33:53.357Z,39.00
2018-08-19T19:37:02.208Z,39.00
2018-08-19T19:40:18.018Z,39.00
2018-08-19T19:43:25.594Z,39.10
2018-08-19T19:46:35.206Z,39.10
2018-08-19T19:49:44.072Z,39.10
2018-08-19T19:52:57.810Z,39.00
2018-08-19T19:56:15.316Z,39.00
2018-08-19T19:59:25.736Z,39.00
2018-08-19T20:02:43.536Z,39.00
2018-08-19T20:05:56.165Z,39.00
2018-08-19T20:09:07.320Z,39.00
2018-08-19T20:12:18.540Z,39.00
2018-08-19T20:15:27.847Z,39.00
2018-08-19T20:18:37.273Z,39.10
2018-08-19T20:21:46.310Z,39.00
2018-08-19T20:24:54.831Z,39.00
2018-08-19T20:28:09.194Z,39.00
2018-08-19T20:31:17.032Z,39.10
2018-08-19T20:34:27.903Z,39.10
2018-08-19T20:37:39.733Z,39.80
2018-08-19T20:40:48.770Z,39.10
2018-08-19T20:43:58.888Z,39.10
2018-08-19T20:47:07.307Z,39.10
2018-08-19T20:50:17.823Z,39.10
2018-08-19T20:53:28.439Z,39.10
2018-08-19T20:56:39.695Z,39.20
2018-08-19T20:59:50.117Z,39.20
2018-08-19T21:02:59.151Z,39.20
2018-08-19T21:06:08.537Z,39.20
2018-08-19T21:09:17.455Z,39.30
2018-08-19T21:12:26.633Z,39.20
2018-08-19T21:15:40.999Z,39.20
2018-08-19T21:18:50.781Z,39.20
2018-08-19T21:22:00.255Z,39.20
2018-08-19T21:25:09.935Z,39.20
2018-08-19T21:28:19.923Z,39.20
2018-08-19T21:31:28.669Z,39.10
2018-08-19T21:34:37.298Z,39.20
2018-08-19T21:37:45.100Z,39.20
2018-08-19T21:40:53.563Z,39.30
2018-08-19T21:44:02.788Z,39.30
2018-08-19T21:47:11.833Z,39.30
2018-08-19T21:50:19.628Z,39.40
2018-08-19T21:53:30.149Z,39.30
2018-08-19T21:56:38.152Z,39.30
2018-08-19T21:59:47.624Z,39.30
2018-08-19T22:04:01.336Z,39.20
2018-08-19T22:07:09.858Z,39.10
2018-08-19T22:10:20.900Z,39.40
2018-08-19T22:13:32.140Z,39.40
2018-08-19T22:16:42.352Z,39.50
2018-08-19T22:19:50.294Z,39.40
2018-08-19T22:22:58.068Z,40.10
2018-08-19T22:26:07.520Z,39.30
2018-08-19T22:29:26.400Z,39.30
2018-08-19T22:32:35.730Z,39.30
2018-08-19T22:35:44.883Z,39.30
2018-08-19T22:38:53.020Z,39.30
2018-08-19T22:42:02.388Z,39.20
2018-08-19T22:45:11.098Z,39.30
2018-08-19T22:48:20.070Z,39.40
2018-08-19T22:51:31.422Z,39.40
2018-08-19T22:54:41.553Z,39.50
2018-08-19T22:57:50.044Z,39.40
2018-08-19T23:00:59.719Z,39.30
2018-08-19T23:04:13.896Z,39.30
2018-08-19T23:07:21.944Z,39.40
2018-08-19T23:10:30.438Z,39.30
2018-08-19T23:13:48.678Z,39.30
2018-08-19T23:16:56.794Z,39.30
2018-08-19T23:20:08.170Z,39.30
2018-08-19T23:23:17.522Z,39.30
2018-08-19T23:26:26.228Z,39.30
2018-08-19T23:29:34.494Z,39.40
2018-08-19T23:32:42.462Z,39.40
2018-08-19T23:35:52.668Z,39.50
2018-08-19T23:39:01.571Z,39.40
2018-08-19T23:42:10.356Z,39.40
2018-08-19T23:45:18.885Z,39.40
2018-08-19T23:48:27.828Z,39.40
2018-08-19T23:51:38.968Z,39.50
2018-08-19T23:54:47.370Z,39.40
2018-08-19T23:57:56.262Z,39.40
